Time;durP1;ratioP1;P1;durP2;ratioP2;P2;SDS_P1;SDS_P2;PMS_P1;PMS_P2;Temp;Humidity;BMP_temperature;BMP_pressure;BME280_temperature;BME280_humidity;BME280_pressure;Samples;Min_cycle;Max_cycle;Signal;HPM_P1;HPM_P2
2022/05/24 00:01:09;;;;;;;2.80;2.17;;;;;;;16.98;45.92;100243.03;5045740;28;20115;-40
2022/05/24 00:03:34;;;;;;;3.13;2.00;;;;;;;16.99;45.88;100238.41;5037851;28;20029;-40
2022/05/24 00:06:00;;;;;;;3.22;1.83;;;;;;;16.95;46.06;100251.75;5044617;28;20469;-40
2022/05/24 00:08:25;;;;;;;3.40;2.10;;;;;;;16.94;45.78;100257.47;5034524;28;20029;-41
2022/05/24 00:10:53;;;;;;;3.50;2.08;;;;;;;16.96;45.95;100255.25;5040504;28;20375;-40
2022/05/24 00:13:18;;;;;;;3.78;1.90;;;;;;;16.92;46.12;100252.38;5036601;28;20048;-40
2022/05/24 00:15:44;;;;;;;4.82;1.85;;;;;;;16.91;46.13;100248.06;5039014;28;20020;-41
2022/05/24 00:18:13;;;;;;;3.88;1.80;;;;;;;16.91;46.42;100245.34;5041695;28;20028;-40
2022/05/24 00:20:46;;;;;;;3.65;1.88;;;;;;;16.89;46.05;100239.44;5038391;28;20028;-40
2022/05/24 00:23:11;;;;;;;4.45;1.45;;;;;;;16.88;46.00;100237.84;5036019;28;20057;-40
2022/05/24 00:25:44;;;;;;;4.75;1.67;;;;;;;16.89;46.07;100239.44;5041033;28;20160;-40
2022/05/24 00:28:10;;;;;;;2.97;1.85;;;;;;;16.86;46.41;100243.53;5037955;28;20112;-40
2022/05/24 00:30:37;;;;;;;3.92;1.80;;;;;;;16.87;46.34;100237.00;5026798;28;20371;-40
2022/05/24 00:33:03;;;;;;;3.10;1.80;;;;;;;16.83;46.48;100248.75;5037733;28;20056;-40
2022/05/24 00:35:29;;;;;;;5.20;1.95;;;;;;;16.83;46.83;100241.44;5037970;28;20021;-40
2022/05/24 00:37:55;;;;;;;3.78;1.75;;;;;;;16.78;47.16;100240.75;5035274;28;20078;-41
2022/05/24 00:40:56;;;;;;;2.30;1.63;;;;;;;16.60;50.43;100237.81;5038067;28;20496;-40
2022/05/24 00:43:42;;;;;;;3.22;2.15;;;;;;;16.45;52.25;100229.19;5005365;28;20041;-40
2022/05/24 00:46:13;;;;;;;4.22;2.05;;;;;;;16.29;52.04;100220.56;5039705;28;20025;-40
2022/05/24 00:49:02;;;;;;;5.50;2.00;;;;;;;16.10;54.43;100206.31;5036774;28;20024;-40
2022/05/24 00:51:47;;;;;;;6.10;2.33;;;;;;;15.94;54.72;100208.47;5042305;28;20030;-40
2022/05/24 00:54:13;;;;;;;3.55;2.40;;;;;;;15.83;54.27;100193.56;5038349;28;20503;-40
2022/05/24 00:56:55;;;;;;;4.47;2.25;;;;;;;15.76;54.66;100196.63;5038871;28;20048;-41
2022/05/24 00:59:28;;;;;;;2.85;2.10;;;;;;;15.73;54.57;100202.63;5041614;28;20055;-40
2022/05/24 01:01:55;;;;;;;3.38;2.30;;;;;;;15.74;54.59;100201.53;5041004;28;20029;-40
2022/05/24 01:04:20;;;;;;;3.65;2.70;;;;;;;15.71;54.60;100202.91;5035753;28;20256;-40
2022/05/24 01:06:48;;;;;;;3.47;2.65;;;;;;;15.74;54.51;100198.81;5041888;28;20474;-40
2022/05/24 01:09:28;;;;;;;8.65;2.58;;;;;;;15.77;54.37;100198.22;5039391;28;20116;-40
2022/05/24 01:12:01;;;;;;;6.90;3.03;;;;;;;15.76;54.09;100193.91;5037986;28;20056;-40
2022/05/24 01:14:27;;;;;;;5.90;2.72;;;;;;;15.78;54.09;100194.41;5037919;28;20059;-40
2022/05/24 01:16:54;;;;;;;2.55;1.98;;;;;;;15.83;53.36;100188.16;5035937;28;20064;-40
2022/05/24 01:19:32;;;;;;;6.25;2.00;;;;;;;15.81;53.67;100187.66;5039531;28;20029;-40
2022/05/24 01:22:05;;;;;;;4.45;2.67;;;;;;;15.87;53.30;100189.97;5035646;28;20116;-40
2022/05/24 01:24:42;;;;;;;4.90;2.60;;;;;;;15.93;53.43;100179.84;5031652;28;20559;-41
2022/05/24 01:27:08;;;;;;;3.97;2.15;;;;;;;15.98;53.60;100174.38;5029838;28;20043;-40
2022/05/24 01:29:33;;;;;;;3.55;2.50;;;;;;;15.98;53.66;100172.47;5031517;28;20448;-40
2022/05/24 01:37:30;;;;;;;5.13;3.33;;;;;;;15.94;53.53;100166.06;5038028;28;20043;-41
2022/05/24 01:39:57;;;;;;;6.38;2.00;;;;;;;15.87;53.49;100179.16;5041247;28;20025;-40
2022/05/24 01:42:24;;;;;;;4.55;2.50;;;;;;;15.88;53.35;100178.06;5037449;28;20398;-40
2022/05/24 01:45:05;;;;;;;3.30;2.53;;;;;;;15.89;53.65;100179.66;5038447;28;20061;-40
2022/05/24 01:47:31;;;;;;;4.70;2.67;;;;;;;15.86;53.44;100174.84;5034104;28;20590;-42
2022/05/24 01:50:01;;;;;;;5.00;2.50;;;;;;;15.89;53.46;100179.66;5032566;28;20029;-41
2022/05/24 01:52:34;;;;;;;2.67;2.13;;;;;;;15.87;53.41;100187.25;5033325;28;20021;-40
2022/05/24 01:55:13;;;;;;;5.75;2.50;;;;;;;15.82;53.33;100183.84;5033651;28;20513;-40
2022/05/24 01:57:50;;;;;;;4.22;2.08;;;;;;;15.83;53.30;100183.56;5037293;28;20040;-40
2022/05/24 02:00:17;;;;;;;6.05;2.33;;;;;;;15.85;53.41;100191.34;5035359;28;20034;-40
2022/05/24 02:02:43;;;;;;;3.38;2.60;;;;;;;15.85;53.63;100175.16;5038380;28;20111;-41
2022/05/24 02:05:10;;;;;;;5.80;2.45;;;;;;;15.87;53.45;100181.06;5041297;28;20056;-41
2022/05/24 02:07:36;;;;;;;4.82;2.40;;;;;;;15.82;53.63;100186.56;5035647;28;20036;-40
2022/05/24 02:10:03;;;;;;;3.33;2.13;;;;;;;15.79;53.64;100177.13;5039557;28;20120;-41
2022/05/24 02:12:43;;;;;;;3.40;2.80;;;;;;;15.79;54.06;100171.72;5032224;28;20108;-42
2022/05/24 02:15:12;;;;;;;10.38;2.78;;;;;;;15.77;54.13;100176.63;5041368;28;20104;-41
2022/05/24 02:18:13;;;;;;;4.10;2.60;;;;;;;15.75;54.21;100172.59;5039622;28;20108;-40
2022/05/24 02:20:41;;;;;;;3.83;2.75;;;;;;;15.74;54.26;100161.00;5033941;28;20412;-40
2022/05/24 02:23:08;;;;;;;5.68;3.20;;;;;;;15.74;54.36;100154.81;5041141;28;20036;-41
2022/05/24 02:25:39;;;;;;;3.95;2.33;;;;;;;15.64;54.40;100167.41;5037451;28;20382;-41
2022/05/24 02:28:08;;;;;;;4.35;2.55;;;;;;;15.71;54.21;100164.31;5035786;28;20029;-40
2022/05/24 02:30:35;;;;;;;4.15;2.80;;;;;;;15.68;54.37;100163.00;5038995;28;20107;-40
2022/05/24 02:33:01;;;;;;;4.07;2.30;;;;;;;15.65;54.44;100162.78;5036797;28;20467;-41
2022/05/24 02:35:27;;;;;;;3.67;2.70;;;;;;;15.65;54.70;100158.19;5035833;28;20032;-40
2022/05/24 02:37:52;;;;;;;8.63;3.53;;;;;;;15.61;54.61;100161.75;5042290;28;20040;-40
2022/05/24 02:43:02;;;;;;;4.15;2.40;;;;;;;15.67;54.57;100166.00;5034850;28;20450;-41
2022/05/24 02:45:27;;;;;;;3.92;2.55;;;;;;;15.65;54.63;100160.91;5039450;28;20029;-40
2022/05/24 02:47:53;;;;;;;4.07;2.08;;;;;;;15.67;54.62;100150.59;5041740;28;20063;-40
2022/05/24 02:50:20;;;;;;;3.90;2.40;;;;;;;15.63;54.92;100170.41;5040135;28;20050;-40
2022/05/24 02:52:46;;;;;;;5.45;2.25;;;;;;;15.63;55.12;100160.41;5038861;28;20021;-41
2022/05/24 02:55:13;;;;;;;3.90;2.75;;;;;;;15.65;54.99;100162.78;5039257;28;20549;-40
2022/05/24 02:57:39;;;;;;;4.43;2.83;;;;;;;15.66;54.97;100165.19;5039555;28;20056;-41
2022/05/24 03:00:08;;;;;;;5.68;2.92;;;;;;;15.64;55.17;100163.91;5040726;28;20533;-41
2022/05/24 03:02:34;;;;;;;5.50;2.55;;;;;;;15.65;55.21;100170.91;5038800;28;20025;-40
2022/05/24 03:05:01;;;;;;;6.00;2.70;;;;;;;15.68;55.52;100170.31;5039766;28;20400;-40
2022/05/24 03:10:10;;;;;;;4.63;2.20;;;;;;;15.69;55.57;100164.59;5039357;28;20056;-41
2022/05/24 03:15:20;;;;;;;3.55;2.90;;;;;;;15.70;55.51;100170.81;5038224;28;20044;-40
2022/05/24 03:17:45;;;;;;;3.42;2.65;;;;;;;15.71;55.63;100169.72;5041341;28;20025;-41
2022/05/24 03:20:11;;;;;;;4.00;1.95;;;;;;;15.68;55.92;100178.41;5039870;28;20021;-40
2022/05/24 03:22:36;;;;;;;4.63;2.65;;;;;;;15.71;55.51;100164.31;5038481;28;20716;-41
2022/05/24 03:25:02;;;;;;;4.15;2.53;;;;;;;15.72;55.80;100168.59;5038265;28;20078;-41
2022/05/24 03:27:28;;;;;;;4.18;2.38;;;;;;;15.71;55.72;100173.22;5040387;28;20033;-40
2022/05/24 03:29:53;;;;;;;5.45;2.55;;;;;;;15.65;56.01;100168.19;5041434;28;20029;-41
2022/05/24 03:32:19;;;;;;;3.83;2.45;;;;;;;15.64;56.24;100170.09;5042640;28;20103;-41
2022/05/24 03:34:45;;;;;;;4.90;2.53;;;;;;;15.62;56.46;100175.00;5041646;28;20025;-41
2022/05/24 03:37:10;;;;;;;3.70;2.40;;;;;;;15.57;57.45;100176.94;5056932;22;20017;-55
2022/05/24 03:39:36;;;;;;;7.82;3.05;;;;;;;15.55;58.18;100176.41;5024115;28;20112;-51
2022/05/24 03:42:02;;;;;;;5.28;2.50;;;;;;;15.50;58.63;100171.09;5021388;28;20466;-50
2022/05/24 03:44:28;;;;;;;4.80;2.60;;;;;;;15.41;59.50;100169.06;5020481;28;20104;-50
2022/05/24 03:46:54;;;;;;;5.60;3.22;;;;;;;15.36;60.10;100176.44;5022350;28;20116;-53
2022/05/24 03:49:20;;;;;;;5.28;2.67;;;;;;;15.39;59.58;100168.56;5006169;28;20130;-52
2022/05/24 03:51:46;;;;;;;5.75;2.45;;;;;;;15.44;59.73;100167.69;5003258;28;20034;-53
2022/05/24 03:54:12;;;;;;;7.32;2.70;;;;;;;15.35;60.81;100170.25;5004751;28;20029;-51
2022/05/24 03:57:59;;;;;;;4.45;3.10;;;;;;;15.36;60.49;100169.16;5005438;28;20048;-52
2022/05/24 03:59:25;;;;;;;4.07;2.92;;;;;;;15.41;60.43;100173.66;5006260;28;20030;-51
2022/05/24 04:04:29;;;;;;;4.55;2.80;;;;;;;15.45;60.29;100168.50;5122284;22;20065;-77
2022/05/24 04:06:55;;;;;;;3.58;2.75;;;;;;;15.45;60.74;100173.91;5020134;28;20487;-77
2022/05/24 04:09:20;;;;;;;4.43;2.90;;;;;;;15.46;61.01;100170.91;5023210;28;20550;-77
2022/05/24 04:11:45;;;;;;;8.88;2.80;;;;;;;15.40;61.68;100172.84;5024021;28;20044;-77
2022/05/24 04:14:11;;;;;;;4.75;2.60;;;;;;;15.37;61.71;100168.06;5023589;28;20037;-77
2022/05/24 04:16:37;;;;;;;3.95;2.80;;;;;;;15.40;61.60;100182.84;5021031;28;20108;-77
2022/05/24 04:19:02;;;;;;;3.72;2.65;;;;;;;15.39;61.81;100179.34;5024185;28;20035;-77
2022/05/24 04:21:28;;;;;;;3.88;3.10;;;;;;;15.45;61.65;100177.41;5022144;28;20482;-77
2022/05/24 04:23:59;;;;;;;4.93;3.20;;;;;;;15.44;62.26;100178.50;5024233;28;20017;-77
2022/05/24 04:26:25;;;;;;;5.70;2.92;;;;;;;15.41;62.09;100184.47;5024095;28;20037;-77
2022/05/24 04:28:51;;;;;;;4.30;2.80;;;;;;;15.41;61.84;100181.75;5024080;28;20109;-77
2022/05/24 04:31:16;;;;;;;6.53;2.95;;;;;;;15.43;61.81;100177.66;5020484;28;20026;-77
2022/05/24 04:33:42;;;;;;;3.58;2.97;;;;;;;15.42;62.27;100184.16;5021830;28;20531;-77
2022/05/24 04:36:07;;;;;;;3.25;2.65;;;;;;;15.44;62.33;100183.91;5024101;28;21752;-78
2022/05/24 04:38:33;;;;;;;11.35;3.45;;;;;;;15.46;61.86;100179.00;5022738;28;20116;-78
2022/05/24 04:43:43;;;;;;;4.55;3.33;;;;;;;15.35;62.38;100186.44;5022747;28;20039;-78
2022/05/24 04:46:08;;;;;;;7.63;2.90;;;;;;;15.40;62.49;100182.84;5020087;28;20037;-79
2022/05/24 04:48:34;;;;;;;5.57;2.63;;;;;;;15.42;62.30;100184.16;5021649;28;20018;-78
2022/05/24 04:50:59;;;;;;;4.05;2.50;;;;;;;15.37;62.48;100189.66;5023350;28;20048;-78
2022/05/24 04:53:27;;;;;;;7.25;3.10;;;;;;;15.38;62.73;100191.25;5022371;28;20080;-78
2022/05/24 04:55:52;;;;;;;6.30;3.15;;;;;;;15.36;62.68;100188.03;5019961;28;20095;-78
2022/05/24 04:58:19;;;;;;;6.25;3.00;;;;;;;15.36;62.89;100188.03;5024231;28;20561;-78
2022/05/24 05:00:47;;;;;;;4.30;3.05;;;;;;;15.39;63.20;100186.66;5021152;28;20025;-79
2022/05/24 05:03:17;;;;;;;6.13;2.85;;;;;;;15.29;64.82;100186.81;5023652;28;20033;-78
2022/05/24 05:05:43;;;;;;;7.32;2.92;;;;;;;15.27;65.14;100195.22;5021864;28;20025;-78
2022/05/24 05:08:09;;;;;;;3.97;2.50;;;;;;;15.15;66.20;100185.94;5027019;28;20120;-78
2022/05/24 05:10:34;;;;;;;6.90;3.25;;;;;;;15.16;66.62;100191.03;5026563;28;20044;-78
2022/05/24 05:13:04;;;;;;;6.15;3.40;;;;;;;15.12;67.18;100192.72;5021272;28;20025;-78
2022/05/24 05:15:34;;;;;;;8.15;3.22;;;;;;;15.10;67.59;100192.22;5019542;28;20021;-78
2022/05/24 05:18:12;;;;;;;6.03;3.60;;;;;;;15.07;68.61;100190.88;5021728;28;20029;-78
2022/05/24 05:20:41;;;;;;;5.70;3.22;;;;;;;15.00;68.26;100200.44;5016360;28;20041;-78
2022/05/24 05:23:19;;;;;;;6.32;3.47;;;;;;;14.94;69.42;100196.22;5019184;28;20033;-78
2022/05/24 05:25:49;;;;;;;4.72;3.03;;;;;;;14.98;68.63;100189.16;5019340;28;20045;-77
2022/05/24 05:28:17;;;;;;;5.97;3.30;;;;;;;15.00;68.87;100200.44;5020267;28;20669;-77
2022/05/24 05:33:26;;;;;;;8.55;3.22;;;;;;;14.99;69.12;100194.25;5018789;28;20037;-78
2022/05/24 05:35:52;;;;;;;6.60;3.40;;;;;;;15.01;69.35;100185.88;5024248;28;20017;-78
2022/05/24 05:38:18;;;;;;;5.10;3.45;;;;;;;15.01;69.55;100193.94;5023040;28;20037;-78
2022/05/24 05:40:44;;;;;;;6.22;3.60;;;;;;;15.06;69.18;100191.19;5020498;28;20098;-78
2022/05/24 05:43:10;;;;;;;5.25;3.42;;;;;;;15.04;69.50;100202.25;5020090;28;20029;-78
2022/05/24 05:45:36;;;;;;;6.45;3.47;;;;;;;15.10;69.19;100200.31;5017831;28;20075;-77
2022/05/24 05:48:02;;;;;;;6.32;3.88;;;;;;;15.14;69.52;100208.63;5017264;28;20033;-78
2022/05/24 05:50:28;;;;;;;5.40;3.47;;;;;;;15.17;69.47;100208.84;5024679;28;20042;-78
2022/05/24 05:52:53;;;;;;;5.07;3.05;;;;;;;15.16;69.26;100209.13;5020466;28;20024;-78
2022/05/24 05:55:19;;;;;;;4.32;3.40;;;;;;;15.13;69.14;100209.72;5020028;28;20725;-78
2022/05/24 05:57:45;;;;;;;5.90;3.50;;;;;;;15.13;69.32;100210.53;5023836;28;20033;-78
2022/05/24 06:00:12;;;;;;;6.55;3.38;;;;;;;15.14;69.48;100212.13;5017186;28;20057;-78
2022/05/24 06:02:38;;;;;;;6.75;3.15;;;;;;;15.18;69.29;100217.75;5018202;28;20119;-78
2022/05/24 06:05:05;;;;;;;4.30;3.40;;;;;;;15.15;69.71;100226.41;5021667;28;20172;-78
2022/05/24 06:07:32;;;;;;;5.43;3.22;;;;;;;15.20;69.66;100237.94;5016971;28;20093;-78
2022/05/24 06:09:58;;;;;;;3.33;3.03;;;;;;;15.21;69.44;100231.44;5019249;28;20513;-78
2022/05/24 06:12:24;;;;;;;4.97;3.08;;;;;;;15.25;69.63;100240.56;5017210;28;20025;-78
2022/05/24 06:14:50;;;;;;;3.40;3.10;;;;;;;15.24;69.70;100244.34;5020693;28;20086;-78
2022/05/24 06:17:15;;;;;;;5.47;3.45;;;;;;;15.23;70.11;100250.03;5021213;28;21471;-78
2022/05/24 06:19:41;;;;;;;6.05;3.75;;;;;;;15.21;71.01;100249.53;5017795;28;20028;-78
2022/05/24 06:22:07;;;;;;;5.53;3.38;;;;;;;15.23;70.61;100252.75;5019954;28;20025;-78
2022/05/24 06:24:32;;;;;;;4.50;3.40;;;;;;;15.19;71.42;100254.41;5019565;28;20026;-79
2022/05/24 06:26:58;;;;;;;6.18;3.90;;;;;;;15.14;72.08;100262.59;5020406;28;20072;-79
2022/05/24 06:29:24;;;;;;;6.00;4.13;;;;;;;15.06;72.90;100275.63;5022880;28;20537;-79
2022/05/24 06:31:50;;;;;;;10.52;4.28;;;;;;;14.90;74.92;100278.78;5018615;28;20028;-79
2022/05/24 06:34:15;;;;;;;6.47;4.90;;;;;;;14.72;77.17;100275.78;5017966;28;20029;-79
2022/05/24 06:36:41;;;;;;;5.65;4.35;;;;;;;14.51;79.01;100285.16;5015442;28;20117;-79
2022/05/24 06:39:07;;;;;;;7.05;5.07;;;;;;;14.34;82.42;100279.34;5016038;28;20033;-78
2022/05/24 06:41:33;;;;;;;7.22;4.97;;;;;;;14.32;82.11;100276.94;5020225;28;20037;-78
2022/05/24 06:43:58;;;;;;;6.25;4.90;;;;;;;14.28;83.70;100280.50;5019001;28;20494;-78
2022/05/24 06:46:24;;;;;;;7.10;4.80;;;;;;;14.25;84.00;100289.16;5021024;28;20124;-78
2022/05/24 06:48:50;;;;;;;8.00;4.72;;;;;;;14.25;84.74;100292.66;5019871;28;20518;-77
2022/05/24 06:51:21;;;;;;;6.90;5.50;;;;;;;14.32;84.73;100295.00;5021674;28;20037;-78
2022/05/24 06:53:48;;;;;;;9.43;5.45;;;;;;;14.31;85.56;100298.78;5017550;28;20029;-78
2022/05/24 06:56:15;;;;;;;10.63;5.35;;;;;;;14.28;86.18;100299.38;5036195;28;20038;-78
2022/05/24 06:58:43;;;;;;;9.75;5.55;;;;;;;14.26;86.39;100296.16;5023729;28;20030;-78
2022/05/24 07:03:56;;;;;;;8.40;5.28;;;;;;;14.26;86.75;100309.63;5012747;28;20136;-80
2022/05/24 07:06:22;;;;;;;8.45;5.82;;;;;;;14.30;87.35;100313.34;5018399;28;20108;-78
2022/05/24 07:08:49;;;;;;;10.80;5.82;;;;;;;14.26;88.28;100315.81;5017861;28;20104;-78
2022/05/24 07:11:17;;;;;;;6.63;5.65;;;;;;;14.25;88.94;100310.72;5016281;28;20041;-78
2022/05/24 07:13:43;;;;;;;8.32;6.10;;;;;;;14.23;89.83;100310.19;5016810;28;20018;-78
2022/05/24 07:16:09;;;;;;;10.85;6.38;;;;;;;14.25;90.26;100305.31;5015386;28;20032;-78
2022/05/24 07:18:37;;;;;;;7.50;6.15;;;;;;;14.32;89.90;100308.47;5020088;28;20717;-78
2022/05/24 07:21:04;;;;;;;8.02;6.05;;;;;;;14.35;90.27;100307.91;5015684;28;20029;-78
2022/05/24 07:23:32;;;;;;;9.65;6.47;;;;;;;14.36;91.26;100312.22;5016943;28;20706;-78
2022/05/24 07:26:15;;;;;;;8.80;6.53;;;;;;;14.45;91.09;100318.63;5017788;28;20026;-78
2022/05/24 07:28:41;;;;;;;7.75;6.38;;;;;;;14.48;91.34;100318.06;5016578;28;20435;-78
2022/05/24 07:31:07;;;;;;;9.68;7.22;;;;;;;14.56;91.66;100316.66;5016637;28;20029;-78
2022/05/24 07:33:33;;;;;;;8.00;6.70;;;;;;;14.68;91.98;100331.34;5012584;28;20033;-78
2022/05/24 07:35:59;;;;;;;10.32;6.85;;;;;;;14.76;92.17;100338.03;5018658;28;20109;-79
2022/05/24 07:38:25;;;;;;;8.25;7.25;;;;;;;14.84;92.69;100336.59;5019231;28;20121;-79
2022/05/24 07:46:19;;;;;;;8.85;7.72;;;;;;;15.01;94.88;100342.34;5019183;28;20536;-79
2022/05/24 07:48:44;;;;;;;11.45;8.13;;;;;;;15.06;95.59;100344.97;5020270;28;20030;-78
2022/05/24 07:51:10;;;;;;;13.63;7.85;;;;;;;15.08;95.89;100345.47;5018964;28;20044;-78
2022/05/24 07:53:37;;;;;;;9.05;7.28;;;;;;;15.23;95.03;100339.91;5021717;28;20022;-78
2022/05/24 07:56:03;;;;;;;9.60;7.20;;;;;;;15.36;94.72;100335.72;5021075;28;20570;-78
2022/05/24 07:58:29;;;;;;;8.45;6.70;;;;;;;15.42;94.37;100335.34;5019709;28;20033;-79
2022/05/24 08:00:56;;;;;;;12.52;7.35;;;;;;;15.51;94.40;100345.50;5019871;28;20032;-78
2022/05/24 08:03:21;;;;;;;13.57;7.90;;;;;;;15.50;94.49;100344.69;5019698;28;20029;-78
2022/05/24 08:05:47;;;;;;;10.93;7.72;;;;;;;15.62;93.88;100338.91;5018165;28;20044;-78
2022/05/24 08:08:14;;;;;;;11.43;7.68;;;;;;;15.66;92.99;100343.44;5019890;28;20037;-79
2022/05/24 08:10:41;;;;;;;9.02;6.28;;;;;;;15.74;93.02;100346.56;5024343;28;20385;-79
2022/05/24 08:13:09;;;;;;;7.85;6.50;;;;;;;15.81;92.20;100360.53;5018312;28;20028;-78
2022/05/24 08:15:35;;;;;;;7.97;5.85;;;;;;;15.90;91.14;100369.56;5020974;28;20034;-78
2022/05/24 08:18:01;;;;;;;6.97;5.95;;;;;;;15.96;90.29;100365.69;5026467;28;20136;-78
2022/05/24 08:20:27;;;;;;;7.15;5.65;;;;;;;16.00;89.56;100375.63;5022156;28;20135;-79
2022/05/24 08:22:53;;;;;;;7.85;5.20;;;;;;;15.94;88.66;100371.38;5014369;28;20054;-78
2022/05/24 08:25:19;;;;;;;8.45;5.78;;;;;;;15.98;87.85;100377.03;5024054;28;20052;-79
2022/05/24 08:27:45;;;;;;;6.30;4.93;;;;;;;15.94;87.65;100387.59;5028007;28;20036;-79
2022/05/24 08:30:16;;;;;;;6.47;5.03;;;;;;;15.98;87.21;100382.44;5023207;28;20025;-79
2022/05/24 08:32:42;;;;;;;6.72;5.10;;;;;;;16.07;86.08;100382.56;5023259;28;20077;-78
2022/05/24 08:35:10;;;;;;;6.50;5.03;;;;;;;16.08;86.48;100387.66;5018450;28;20026;-79
2022/05/24 08:37:42;;;;;;;7.95;5.10;;;;;;;16.14;86.01;100393.78;5019927;28;20033;-78
2022/05/24 08:40:10;;;;;;;7.20;5.10;;;;;;;16.14;85.25;100391.09;5018866;28;20025;-78
2022/05/24 08:43:06;;;;;;;6.43;4.88;;;;;;;16.13;84.96;100389.50;5019343;28;20069;-79
2022/05/24 08:48:28;;;;;;;6.35;5.07;;;;;;;16.25;85.51;100406.06;5015542;28;20099;-79
2022/05/24 08:51:02;;;;;;;8.77;6.00;;;;;;;16.31;84.76;100407.59;5019795;28;20072;-79
2022/05/24 08:53:40;;;;;;;7.72;6.20;;;;;;;16.25;85.16;100411.47;5025290;28;20116;-79
2022/05/24 08:56:08;;;;;;;8.93;5.82;;;;;;;16.29;84.26;100413.28;5023001;28;20032;-79
2022/05/24 08:58:38;;;;;;;9.65;6.13;;;;;;;16.35;83.40;100413.22;5023792;28;20029;-79
2022/05/24 09:01:11;;;;;;;8.18;5.13;;;;;;;16.38;82.54;100405.34;5017843;28;20489;-78
2022/05/24 09:03:38;;;;;;;8.02;5.38;;;;;;;16.41;81.90;100412.84;5013460;28;20403;-78
2022/05/24 09:06:38;;;;;;;8.13;5.65;;;;;;;16.52;80.36;100413.50;5021082;28;20052;-79
2022/05/24 09:09:29;;;;;;;8.60;5.40;;;;;;;16.66;80.19;100413.53;5016680;28;20037;-79
2022/05/24 09:12:19;;;;;;;7.10;5.07;;;;;;;16.72;79.41;100415.91;5021207;28;20030;-78
2022/05/24 09:14:58;;;;;;;7.03;4.97;;;;;;;16.80;78.80;100422.50;5025875;28;20458;-78
2022/05/24 09:17:46;;;;;;;6.68;4.70;;;;;;;16.87;78.51;100428.31;5024420;28;20572;-78
2022/05/24 09:20:33;;;;;;;7.00;4.65;;;;;;;16.89;77.93;100421.53;5019671;28;20091;-76
2022/05/24 09:23:11;;;;;;;5.60;3.85;;;;;;;16.91;76.29;100429.38;5023159;28;20051;-79
2022/05/24 09:25:44;;;;;;;4.40;3.60;;;;;;;16.99;76.10;100431.38;5018875;28;20021;-78
2022/05/24 09:28:10;;;;;;;5.82;3.85;;;;;;;17.11;76.10;100434.41;5015967;28;20025;-78
2022/05/24 09:30:42;;;;;;;4.75;4.18;;;;;;;17.17;75.88;100440.53;5013602;28;20724;-78
2022/05/24 09:33:19;;;;;;;5.85;3.88;;;;;;;17.26;75.43;100444.16;5018134;28;20430;-78
2022/05/24 09:35:44;;;;;;;5.47;4.22;;;;;;;17.34;75.29;100450.75;5016989;28;20105;-78
2022/05/24 09:38:16;;;;;;;7.07;4.05;;;;;;;17.39;75.01;100447.94;5015186;28;20116;-78
2022/05/24 09:40:49;;;;;;;5.55;4.05;;;;;;;17.49;74.86;100453.97;5013163;28;20029;-78
2022/05/24 09:43:26;;;;;;;4.32;3.90;;;;;;;17.53;74.28;100454.16;5017053;28;20041;-78
2022/05/24 09:46:17;;;;;;;4.57;3.85;;;;;;;17.71;74.53;100457.91;5022532;28;20518;-78
2022/05/24 09:49:21;;;;;;;4.95;4.28;;;;;;;17.73;73.37;100453.78;5018559;28;20116;-78
2022/05/24 09:51:47;;;;;;;5.38;3.88;;;;;;;17.76;72.50;100455.88;5017978;28;20036;-78
2022/05/24 09:54:21;;;;;;;5.38;3.65;;;;;;;17.73;71.55;100463.81;5019535;28;20034;-78
2022/05/24 09:57:11;;;;;;;5.97;3.65;;;;;;;17.70;72.13;100469.84;5025206;28;20021;-78
2022/05/24 09:59:41;;;;;;;5.65;4.38;;;;;;;17.73;72.65;100469.25;5019907;28;20026;-77
2022/05/24 10:02:29;;;;;;;7.43;3.75;;;;;;;17.68;72.90;100481.00;5015481;28;20517;-78
2022/05/24 10:04:55;;;;;;;5.57;3.28;;;;;;;17.62;72.13;100478.66;5016194;28;20151;-78
2022/05/24 10:07:29;;;;;;;4.55;3.58;;;;;;;17.59;72.28;100476.53;5017828;28;20105;-78
2022/05/24 10:10:12;;;;;;;6.30;3.03;;;;;;;17.59;72.21;100481.94;5020757;28;20437;-78
2022/05/24 10:12:47;;;;;;;4.97;2.97;;;;;;;17.60;71.50;100478.16;5019476;28;20033;-77
2022/05/24 10:15:18;;;;;;;2.70;2.42;;;;;;;17.58;70.46;100478.44;5019595;28;20061;-78
2022/05/24 10:17:49;;;;;;;2.72;2.38;;;;;;;17.54;69.51;100488.28;5018956;28;20033;-78
2022/05/24 10:20:36;;;;;;;3.25;2.25;;;;;;;17.51;68.76;100488.88;5015920;28;20026;-77
2022/05/24 10:23:07;;;;;;;3.15;2.33;;;;;;;17.54;68.88;100482.88;5023436;28;20033;-79
2022/05/24 10:25:43;;;;;;;2.55;2.20;;;;;;;17.65;68.31;100489.69;5018983;28;20072;-78
2022/05/24 10:28:13;;;;;;;3.15;2.13;;;;;;;17.79;67.64;100495.16;5023073;28;20045;-78
2022/05/24 10:30:57;;;;;;;3.35;1.95;;;;;;;17.98;66.95;100498.53;5022427;28;20504;-78
2022/05/24 10:38:17;;;;;;;3.83;2.30;;;;;;;18.24;65.23;100501.50;5014298;28;20151;-78
2022/05/24 10:40:29;;;;;;;4.40;1.80;;;;;;;18.53;63.79;100498.41;5021681;28;20022;-78
2022/05/24 10:43:16;;;;;;;1.90;1.67;;;;;;;18.77;63.11;100492.72;5009904;28;20449;-78
2022/05/24 10:45:50;;;;;;;2.67;1.90;;;;;;;18.88;61.27;100493.28;5016996;28;20611;-79
2022/05/24 10:48:36;;;;;;;2.63;1.83;;;;;;;19.03;61.98;100498.31;5018528;28;20044;-79
2022/05/24 10:51:30;;;;;;;2.85;1.67;;;;;;;19.06;60.34;100486.84;5021519;28;20589;-79
2022/05/24 10:54:08;;;;;;;3.65;1.67;;;;;;;19.01;60.21;100490.47;5019689;28;20022;-78
2022/05/24 10:56:55;;;;;;;4.82;1.90;;;;;;;19.00;60.17;100502.44;5019135;28;20030;-78
2022/05/24 10:59:52;;;;;;;3.72;1.60;;;;;;;19.17;60.36;100499.03;5017921;28;20025;-79
2022/05/24 11:02:41;;;;;;;1.40;1.30;;;;;;;19.24;59.90;100512.97;5021386;28;20217;-79
2022/05/24 11:05:17;;;;;;;1.48;1.33;;;;;;;19.29;58.98;100531.84;5022012;28;20021;-79
2022/05/24 11:07:46;;;;;;;1.63;1.48;;;;;;;19.36;58.89;100534.09;5019106;28;20029;-78
2022/05/24 11:10:26;;;;;;;1.27;1.17;;;;;;;19.44;57.89;100525.22;5018586;28;20079;-79
2022/05/24 11:12:55;;;;;;;2.45;1.45;;;;;;;19.51;57.93;100524.75;5017333;28;20037;-79
2022/05/24 11:15:33;;;;;;;1.20;1.10;;;;;;;19.79;57.87;100526.19;5016619;28;20023;-80
2022/05/24 11:18:20;;;;;;;0.98;0.98;;;;;;;20.13;55.93;100516.53;5019651;28;20037;-79
2022/05/24 11:21:21;;;;;;;1.20;1.10;;;;;;;20.20;54.97;100523.09;5020611;28;20052;-79
2022/05/24 11:24:24;;;;;;;1.10;0.98;;;;;;;20.34;54.60;100528.38;5017701;28;20131;-79
2022/05/24 11:26:53;;;;;;;2.17;1.20;;;;;;;20.58;54.88;100527.94;5020697;28;20035;-79
2022/05/24 11:29:25;;;;;;;1.80;1.30;;;;;;;20.72;53.24;100523.16;5016046;28;20026;-79
2022/05/24 11:31:58;;;;;;;3.67;1.20;;;;;;;20.78;53.92;100515.59;5033729;28;20013;-79
2022/05/24 11:34:31;;;;;;;2.35;1.10;;;;;;;20.31;52.62;100522.78;5027075;28;20750;-80
2022/05/24 11:37:03;;;;;;;2.17;1.20;;;;;;;20.51;53.15;100517.56;5017440;28;20544;-79
2022/05/24 11:39:32;;;;;;;1.92;1.20;;;;;;;20.65;52.77;100514.69;5017772;28;20030;-79
2022/05/24 11:42:26;;;;;;;1.50;1.00;;;;;;;20.86;51.81;100524.91;5020864;28;20025;-79
2022/05/24 11:44:54;;;;;;;3.25;1.23;;;;;;;21.24;52.26;100528.53;5039505;28;20121;-79
2022/05/24 11:47:48;;;;;;;1.10;1.00;;;;;;;21.37;51.40;100535.72;5023766;28;20115;-79
2022/05/24 11:50:59;;;;;;;1.52;1.10;;;;;;;21.63;49.85;100529.38;5012630;28;20064;-79
2022/05/24 11:53:36;;;;;;;1.25;1.00;;;;;;;21.76;49.69;100533.81;5020336;28;20038;-79
2022/05/24 11:56:02;;;;;;;1.13;0.95;;;;;;;21.82;49.89;100532.47;5020213;28;20092;-79
2022/05/24 11:58:30;;;;;;;1.63;0.88;;;;;;;21.82;49.06;100531.69;5019062;28;20349;-79
2022/05/24 12:01:06;;;;;;;1.20;0.93;;;;;;;22.14;49.32;100538.44;5022017;28;20106;-79
2022/05/24 12:09:59;;;;;;;1.40;1.00;;;;;;;22.30;48.46;100553.13;5021394;28;20072;-78
2022/05/24 12:12:45;;;;;;;1.55;1.00;;;;;;;22.37;48.42;100556.09;5019614;28;20033;-79
2022/05/24 12:15:16;;;;;;;2.70;1.00;;;;;;;22.03;48.12;100557.09;5019728;28;20467;-79
2022/05/24 12:17:44;;;;;;;1.65;1.02;;;;;;;22.09;48.44;100560.47;5019354;28;20101;-79
2022/05/24 12:20:33;;;;;;;3.00;1.30;;;;;;;21.91;48.56;100555.06;5026973;28;20407;-79
2022/05/24 12:23:04;;;;;;;2.22;1.17;;;;;;;21.87;48.47;100556.03;5023914;28;20044;-80
2022/05/24 12:25:59;;;;;;;2.05;0.90;;;;;;;21.90;48.59;100549.91;5017705;28;20506;-79